Time;durP1;ratioP1;P1;durP2;ratioP2;P2;SDS_P1;SDS_P2;PMS_P1;PMS_P2;Temp;Humidity;BMP_temperature;BMP_pressure;BME280_temperature;BME280_humidity;BME280_pressure;Samples;Min_cycle;Max_cycle;Signal;HPM_P1;HPM_P2
2022/11/14 00:00:45;;;;;;;22.88;13.45;;;10.50;99.90;;;;;;5026187;28;20034;-66
2022/11/14 00:03:12;;;;;;;22.48;13.43;;;10.50;99.90;;;;;;5029458;28;20086;-66
2022/11/14 00:05:40;;;;;;;21.85;12.45;;;10.50;99.90;;;;;;5026937;28;20111;-66
2022/11/14 00:08:10;;;;;;;20.60;12.68;;;10.40;99.90;;;;;;5010332;28;20104;-67
2022/11/14 00:10:36;;;;;;;20.83;12.70;;;10.40;99.90;;;;;;5024711;28;20099;-67
2022/11/14 00:13:02;;;;;;;19.17;11.35;;;10.40;99.90;;;;;;5026432;28;20113;-67
2022/11/14 00:15:27;;;;;;;20.08;12.27;;;10.40;99.90;;;;;;5028504;28;20029;-67
2022/11/14 00:17:53;;;;;;;18.02;11.50;;;10.40;99.90;;;;;;5025868;28;20034;-66
2022/11/14 00:20:19;;;;;;;17.70;11.07;;;10.50;99.90;;;;;;5028004;28;20053;-66
2022/11/14 00:22:45;;;;;;;21.05;12.13;;;10.50;99.90;;;;;;5028728;28;20052;-66
2022/11/14 00:25:11;;;;;;;17.35;12.10;;;10.50;99.90;;;;;;5026729;28;20374;-67
2022/11/14 00:27:37;;;;;;;19.70;12.82;;;10.50;99.90;;;;;;5024307;28;20040;-66
2022/11/14 00:30:03;;;;;;;19.05;10.95;;;10.50;99.90;;;;;;5027079;28;20037;-66
2022/11/14 00:32:29;;;;;;;18.95;11.57;;;10.50;99.90;;;;;;5028280;28;20120;-66
2022/11/14 00:34:55;;;;;;;18.17;10.77;;;10.50;99.90;;;;;;5025914;28;20130;-66
2022/11/14 00:37:21;;;;;;;18.50;11.40;;;10.50;99.90;;;;;;5028132;28;20069;-66
2022/11/14 00:39:46;;;;;;;21.00;12.02;;;10.50;99.90;;;;;;5025825;28;20560;-66
2022/11/14 00:42:12;;;;;;;16.58;10.88;;;10.60;99.90;;;;;;5027218;28;20091;-67
2022/11/14 00:44:38;;;;;;;20.17;11.60;;;10.60;99.90;;;;;;5031245;28;20072;-67
2022/11/14 00:47:04;;;;;;;20.08;11.27;;;10.70;99.90;;;;;;5029788;28;20076;-65
2022/11/14 00:49:29;;;;;;;19.25;11.52;;;10.70;99.90;;;;;;5031655;28;20057;-66
2022/11/14 00:51:55;;;;;;;18.65;11.90;;;10.80;99.90;;;;;;5019327;28;20456;-66
2022/11/14 00:54:21;;;;;;;20.00;11.88;;;10.70;99.90;;;;;;5028557;28;20025;-66
2022/11/14 00:56:46;;;;;;;20.30;12.00;;;10.60;99.90;;;;;;5027603;28;20033;-66
2022/11/14 00:59:12;;;;;;;19.73;11.57;;;10.60;99.90;;;;;;5032518;28;20025;-66
2022/11/14 01:01:38;;;;;;;20.10;12.43;;;10.60;99.90;;;;;;5031222;28;20065;-66
2022/11/14 01:04:03;;;;;;;21.60;11.45;;;10.50;99.90;;;;;;5030393;28;20076;-67
2022/11/14 01:06:29;;;;;;;17.80;11.00;;;10.40;99.90;;;;;;5032325;28;20044;-66
2022/11/14 01:08:55;;;;;;;23.88;11.63;;;10.40;99.90;;;;;;5030800;28;20116;-67
2022/11/14 01:11:21;;;;;;;18.20;10.52;;;10.40;99.90;;;;;;5025338;28;20501;-66
2022/11/14 01:13:47;;;;;;;19.00;11.20;;;10.40;99.90;;;;;;5007854;28;20120;-66
2022/11/14 01:16:13;;;;;;;20.38;11.02;;;10.50;99.90;;;;;;5031911;28;20108;-67
2022/11/14 01:18:40;;;;;;;21.77;11.73;;;10.50;99.90;;;;;;5027152;28;20160;-67
2022/11/14 01:21:08;;;;;;;18.55;11.02;;;10.50;99.90;;;;;;5029449;28;20053;-67
2022/11/14 01:23:35;;;;;;;21.65;11.15;;;10.60;99.90;;;;;;5034232;28;20029;-67
2022/11/14 01:26:07;;;;;;;23.05;13.05;;;10.60;99.90;;;;;;5029859;28;20025;-66
2022/11/14 01:28:33;;;;;;;24.02;11.38;;;10.60;99.90;;;;;;5031756;28;20057;-67
2022/11/14 01:31:14;;;;;;;21.15;11.70;;;10.70;99.90;;;;;;5025027;28;20104;-67
2022/11/14 01:33:40;;;;;;;18.77;10.95;;;10.70;99.90;;;;;;5013655;28;20131;-69
2022/11/14 01:36:07;;;;;;;22.98;11.93;;;10.70;99.90;;;;;;5021955;28;20037;-66
2022/11/14 01:38:33;;;;;;;20.35;10.93;;;10.80;99.90;;;;;;5031665;28;20141;-67
2022/11/14 01:41:00;;;;;;;20.92;11.25;;;10.80;99.90;;;;;;5028420;28;20763;-67
2022/11/14 01:43:27;;;;;;;23.05;12.88;;;10.90;99.90;;;;;;5031345;28;20492;-67
2022/11/14 01:46:06;;;;;;;24.08;12.13;;;10.90;99.90;;;;;;5029647;28;20108;-67
2022/11/14 01:49:11;;;;;;;22.08;11.95;;;10.90;99.90;;;;;;5030713;28;20124;-67
2022/11/14 01:51:40;;;;;;;24.77;11.50;;;11.10;99.90;;;;;;4991930;28;20505;-67
2022/11/14 01:54:10;;;;;;;26.67;13.60;;;11.10;99.90;;;;;;5029860;28;20558;-67
2022/11/14 01:56:40;;;;;;;24.60;12.43;;;11.10;99.90;;;;;;5030221;28;20068;-67
2022/11/14 01:59:12;;;;;;;22.00;12.27;;;11.10;99.90;;;;;;5016106;28;20030;-67
2022/11/14 02:01:45;;;;;;;22.33;12.40;;;11.20;99.90;;;;;;5027869;28;20030;-67
2022/11/14 02:04:16;;;;;;;24.00;13.13;;;11.30;99.90;;;;;;5007759;28;20477;-67
2022/11/14 02:06:43;;;;;;;30.15;15.18;;;11.40;99.90;;;;;;5023314;28;20063;-66
2022/11/14 02:09:09;;;;;;;29.30;14.00;;;11.50;99.90;;;;;;5029021;28;20021;-67
2022/11/14 02:11:39;;;;;;;24.60;12.90;;;11.50;99.90;;;;;;5028383;28;20037;-67
2022/11/14 02:14:06;;;;;;;23.77;13.70;;;11.60;99.90;;;;;;5028409;28;20056;-67
2022/11/14 02:16:32;;;;;;;27.27;13.13;;;11.60;99.90;;;;;;5030850;28;20038;-67
2022/11/14 02:18:57;;;;;;;30.63;14.40;;;11.60;99.90;;;;;;5021502;28;20099;-67
2022/11/14 02:21:23;;;;;;;26.98;14.52;;;11.70;99.90;;;;;;5023482;28;20097;-67
2022/11/14 02:23:49;;;;;;;25.92;13.35;;;11.70;99.90;;;;;;5029006;28;20058;-67
2022/11/14 02:26:19;;;;;;;27.95;13.82;;;11.70;99.90;;;;;;5030277;28;20037;-67
2022/11/14 02:28:46;;;;;;;28.42;14.55;;;11.70;99.90;;;;;;5030311;28;20465;-67
2022/11/14 02:31:13;;;;;;;26.90;14.95;;;11.70;99.90;;;;;;5028595;28;20374;-67
2022/11/14 02:33:39;;;;;;;27.25;14.73;;;11.70;99.90;;;;;;5030474;28;20104;-67
2022/11/14 02:36:05;;;;;;;29.10;15.00;;;11.70;99.90;;;;;;5027676;28;20125;-67
2022/11/14 02:38:30;;;;;;;26.40;13.20;;;11.70;99.90;;;;;;5029691;28;20017;-67
2022/11/14 02:40:59;;;;;;;24.95;13.77;;;11.80;99.90;;;;;;5027670;28;20052;-67
2022/11/14 02:43:24;;;;;;;29.42;13.65;;;11.70;99.90;;;;;;5030221;28;20136;-67
2022/11/14 02:45:50;;;;;;;23.38;13.23;;;11.70;99.90;;;;;;5028453;28;20499;-66
2022/11/14 02:48:16;;;;;;;26.20;13.25;;;11.70;99.90;;;;;;5030286;28;20037;-66
2022/11/14 02:50:42;;;;;;;25.27;13.68;;;11.70;99.90;;;;;;5023058;28;20069;-67
2022/11/14 02:53:07;;;;;;;28.25;14.75;;;11.70;99.90;;;;;;5010431;28;20017;-67
2022/11/14 02:55:33;;;;;;;30.55;13.98;;;11.70;99.90;;;;;;5028894;28;20034;-66
2022/11/14 02:57:59;;;;;;;32.88;14.75;;;11.70;99.90;;;;;;5027823;28;20028;-67
2022/11/14 03:00:24;;;;;;;32.20;14.32;;;11.70;99.90;;;;;;5029030;28;20103;-67
2022/11/14 03:02:52;;;;;;;29.05;13.13;;;11.70;99.90;;;;;;5028686;28;20061;-67
2022/11/14 03:05:18;;;;;;;26.65;13.60;;;11.60;99.90;;;;;;5029188;28;20029;-67
2022/11/14 03:07:44;;;;;;;26.85;12.93;;;11.50;99.90;;;;;;5025550;28;20477;-67
2022/11/14 03:10:10;;;;;;;25.15;13.20;;;11.40;99.90;;;;;;5024515;28;20064;-66
2022/11/14 03:12:36;;;;;;;25.30;13.10;;;11.40;99.90;;;;;;5027151;28;20424;-67
2022/11/14 03:15:04;;;;;;;21.65;12.57;;;11.30;99.90;;;;;;5024372;28;20025;-66
2022/11/14 03:17:32;;;;;;;27.23;13.25;;;11.40;99.90;;;;;;5029740;28;20543;-66
2022/11/14 03:19:58;;;;;;;20.38;11.55;;;11.40;99.90;;;;;;5026970;28;20072;-66
2022/11/14 03:22:24;;;;;;;21.20;11.85;;;11.30;99.90;;;;;;5021004;28;20452;-67
2022/11/14 03:24:50;;;;;;;23.85;12.73;;;11.30;99.90;;;;;;5027677;28;20481;-66
2022/11/14 03:27:16;;;;;;;27.25;14.32;;;11.30;99.90;;;;;;5029459;28;20033;-67
2022/11/14 03:29:41;;;;;;;24.98;12.48;;;11.30;99.90;;;;;;5029370;28;20037;-66
2022/11/14 03:32:07;;;;;;;23.33;12.43;;;11.40;99.90;;;;;;5026448;28;20071;-66
2022/11/14 03:34:33;;;;;;;22.40;12.00;;;11.30;99.90;;;;;;5029535;28;20064;-66
2022/11/14 03:36:59;;;;;;;23.75;11.77;;;11.30;99.90;;;;;;5027052;28;20029;-66
2022/11/14 03:39:25;;;;;;;21.20;11.88;;;11.30;99.90;;;;;;5028893;28;20480;-66
2022/11/14 03:41:51;;;;;;;25.55;12.60;;;11.40;99.90;;;;;;5026959;28;20033;-66
2022/11/14 03:44:17;;;;;;;23.33;12.65;;;11.30;99.90;;;;;;5020444;28;20022;-66
2022/11/14 03:46:42;;;;;;;23.10;12.25;;;11.30;99.90;;;;;;5027690;28;20417;-67
2022/11/14 03:49:08;;;;;;;21.80;12.30;;;11.30;99.90;;;;;;5027850;28;20366;-66
2022/11/14 03:51:34;;;;;;;22.05;12.65;;;11.30;99.90;;;;;;5028796;28;20063;-67
2022/11/14 03:54:00;;;;;;;24.52;13.00;;;11.30;99.90;;;;;;5005984;28;20030;-66
2022/11/14 03:56:26;;;;;;;24.15;11.77;;;11.30;99.90;;;;;;5028112;28;20341;-66
2022/11/14 03:58:51;;;;;;;18.23;10.48;;;11.20;99.90;;;;;;5027708;28;20430;-66
2022/11/14 04:01:17;;;;;;;27.02;11.45;;;11.20;99.90;;;;;;5027274;28;20029;-67
2022/11/14 04:03:43;;;;;;;24.55;11.98;;;11.20;99.90;;;;;;5028874;28;20539;-67
2022/11/14 04:06:09;;;;;;;19.77;11.57;;;11.10;99.90;;;;;;5019740;28;20057;-67
2022/11/14 04:08:35;;;;;;;28.48;12.82;;;11.10;99.90;;;;;;5029121;28;20068;-66
2022/11/14 04:11:00;;;;;;;25.50;13.35;;;11.20;99.90;;;;;;5026807;28;20045;-66
2022/11/14 04:13:26;;;;;;;30.83;15.00;;;11.20;99.90;;;;;;5029269;28;20070;-66
2022/11/14 04:15:56;;;;;;;28.60;12.02;;;11.30;99.90;;;;;;5026074;28;20443;-67
2022/11/14 04:18:23;;;;;;;23.75;11.65;;;11.30;99.90;;;;;;5025466;28;20030;-67
2022/11/14 04:20:48;;;;;;;21.45;11.38;;;11.30;99.90;;;;;;5030380;28;20180;-66
2022/11/14 04:23:14;;;;;;;36.78;13.00;;;11.20;99.90;;;;;;5032468;28;20120;-66
2022/11/14 04:25:43;;;;;;;26.67;13.02;;;11.20;99.90;;;;;;5032279;28;20029;-66
2022/11/14 04:28:08;;;;;;;32.03;13.48;;;11.20;99.90;;;;;;5029712;28;20033;-66
2022/11/14 04:30:34;;;;;;;29.95;13.98;;;11.30;99.90;;;;;;5030228;28;20935;-66
2022/11/14 04:33:00;;;;;;;26.52;12.82;;;11.30;99.90;;;;;;5029905;28;20045;-67
2022/11/14 04:35:25;;;;;;;26.15;13.50;;;11.30;99.90;;;;;;5033120;28;20477;-66
2022/11/14 04:37:51;;;;;;;27.70;13.15;;;11.30;99.90;;;;;;5031109;28;20045;-66
2022/11/14 04:40:17;;;;;;;25.65;12.90;;;11.30;99.90;;;;;;5032495;28;20068;-67
2022/11/14 04:42:43;;;;;;;24.20;12.57;;;11.30;99.90;;;;;;5025062;23;20047;-59
2022/11/14 04:45:09;;;;;;;30.17;13.18;;;11.30;99.90;;;;;;4990915;28;20081;-60
2022/11/14 04:47:35;;;;;;;28.95;13.30;;;11.30;99.90;;;;;;4992673;28;20026;-59
2022/11/14 04:50:01;;;;;;;24.73;12.75;;;11.30;99.90;;;;;;4990913;28;20121;-60
2022/11/14 04:52:27;;;;;;;24.15;12.07;;;11.30;99.90;;;;;;4992934;28;20030;-59
2022/11/14 04:54:52;;;;;;;31.80;13.77;;;11.30;99.90;;;;;;4991183;28;20032;-60
2022/11/14 04:57:18;;;;;;;26.75;13.35;;;11.40;99.90;;;;;;4991940;28;20025;-60
2022/11/14 04:59:44;;;;;;;28.05;13.20;;;11.30;99.90;;;;;;4990588;28;20035;-60
2022/11/14 05:02:10;;;;;;;29.25;14.00;;;11.30;99.90;;;;;;4991402;28;20037;-60
2022/11/14 05:04:35;;;;;;;27.60;12.95;;;11.40;99.90;;;;;;4992118;28;20213;-61
2022/11/14 05:07:01;;;;;;;24.73;11.82;;;11.40;99.90;;;;;;4988729;28;20022;-60
2022/11/14 05:09:27;;;;;;;24.27;12.70;;;11.30;99.90;;;;;;4991078;28;20076;-60
2022/11/14 05:11:53;;;;;;;27.20;13.02;;;11.30;99.90;;;;;;4991077;28;20038;-59
2022/11/14 05:14:19;;;;;;;29.85;13.27;;;11.30;99.90;;;;;;4991186;28;20030;-60
2022/11/14 05:16:44;;;;;;;25.13;13.07;;;11.30;99.90;;;;;;4992307;28;20038;-60
2022/11/14 05:19:10;;;;;;;29.63;13.93;;;11.40;99.90;;;;;;4988054;28;20034;-60
2022/11/14 05:21:36;;;;;;;31.15;14.32;;;11.40;99.90;;;;;;4988173;28;20104;-61
2022/11/14 05:24:01;;;;;;;30.08;14.38;;;11.40;99.90;;;;;;4989657;28;20478;-60
2022/11/14 05:26:27;;;;;;;35.17;13.70;;;11.40;99.90;;;;;;4992526;28;20034;-60
2022/11/14 05:28:53;;;;;;;31.40;13.32;;;11.40;99.90;;;;;;4988396;28;20031;-60
2022/11/14 05:31:18;;;;;;;30.67;14.40;;;11.40;99.90;;;;;;4990661;28;20034;-60
2022/11/14 05:33:45;;;;;;;34.38;14.80;;;11.40;99.90;;;;;;4989885;28;20062;-59
2022/11/14 05:36:14;;;;;;;33.00;14.82;;;11.50;99.90;;;;;;4989380;28;20117;-59
2022/11/14 05:38:40;;;;;;;30.52;14.20;;;11.50;99.90;;;;;;4990632;28;20081;-60
2022/11/14 05:41:12;;;;;;;39.60;16.33;;;11.40;99.90;;;;;;4992005;28;20088;-59
2022/11/14 05:43:38;;;;;;;;;;;11.40;99.90;;;;;;4991402;28;20058;-60
2022/11/14 05:46:06;;;;;;;31.80;14.55;;;11.40;99.90;;;;;;4989117;28;20425;-59
2022/11/14 05:48:32;;;;;;;35.53;15.43;;;11.40;99.90;;;;;;4986259;28;20053;-62
2022/11/14 05:50:59;;;;;;;37.13;16.48;;;11.40;99.90;;;;;;4979657;28;20074;-60
2022/11/14 05:53:26;;;;;;;34.97;15.40;;;11.40;99.90;;;;;;4987214;28;20018;-60
2022/11/14 05:55:52;;;;;;;34.72;16.25;;;11.50;99.90;;;;;;4985760;28;20062;-60
2022/11/14 05:58:18;;;;;;;29.65;14.93;;;11.40;99.90;;;;;;4982728;28;20026;-60
2022/11/14 06:00:44;;;;;;;38.22;15.65;;;11.50;99.90;;;;;;4991024;28;20030;-59
2022/11/14 06:03:10;;;;;;;33.92;14.88;;;11.50;99.90;;;;;;4987857;28;20042;-59
2022/11/14 06:05:36;;;;;;;30.08;14.13;;;11.50;99.90;;;;;;4983163;28;20041;-61
2022/11/14 06:08:02;;;;;;;27.30;13.73;;;11.50;99.90;;;;;;4986737;28;20031;-60
2022/11/14 06:10:28;;;;;;;32.35;15.38;;;11.50;99.90;;;;;;4989583;28;20042;-59
2022/11/14 06:12:54;;;;;;;35.67;16.52;;;11.50;99.90;;;;;;4987058;28;20034;-62
2022/11/14 06:15:20;;;;;;;31.67;15.05;;;11.50;99.90;;;;;;4989811;28;20394;-60
2022/11/14 06:17:46;;;;;;;31.13;15.60;;;11.60;99.90;;;;;;4984786;28;20065;-60
2022/11/14 06:20:12;;;;;;;28.85;15.10;;;11.50;99.90;;;;;;4982417;28;20034;-60
2022/11/14 06:22:39;;;;;;;29.48;15.13;;;11.50;99.90;;;;;;4983374;28;20162;-62
2022/11/14 06:25:05;;;;;;;36.10;15.85;;;11.50;99.90;;;;;;4989012;28;20039;-61
2022/11/14 06:27:31;;;;;;;30.52;14.50;;;11.60;99.90;;;;;;4986132;28;20042;-61
2022/11/14 06:29:57;;;;;;;27.52;14.30;;;11.50;99.90;;;;;;4984814;28;20038;-59
2022/11/14 06:32:22;;;;;;;33.35;14.50;;;11.50;99.90;;;;;;4989985;28;20057;-61
2022/11/14 06:34:48;;;;;;;26.40;14.45;;;11.40;99.90;;;;;;4986503;28;20069;-62
2022/11/14 06:37:14;;;;;;;24.00;12.70;;;11.30;99.90;;;;;;4986214;28;20478;-59
2022/11/14 06:39:40;;;;;;;19.77;11.75;;;11.30;99.90;;;;;;4988123;28;20034;-61
2022/11/14 06:42:05;;;;;;;21.45;13.20;;;11.30;99.90;;;;;;4988368;28;20038;-60
2022/11/14 06:44:31;;;;;;;29.20;13.23;;;11.30;99.90;;;;;;4990740;28;20038;-60
2022/11/14 06:46:57;;;;;;;25.02;12.88;;;11.30;99.90;;;;;;4981244;28;20400;-61
2022/11/14 06:49:23;;;;;;;28.08;14.90;;;11.40;99.90;;;;;;4989683;28;20121;-61
2022/11/14 06:51:50;;;;;;;27.52;14.55;;;11.40;99.90;;;;;;4985020;28;20454;-60
2022/11/14 06:54:16;;;;;;;33.58;15.38;;;11.40;99.90;;;;;;4985542;28;20022;-61
2022/11/14 06:56:41;;;;;;;27.67;13.60;;;11.50;99.90;;;;;;4986401;28;20034;-61
2022/11/14 06:59:07;;;;;;;29.88;14.68;;;11.60;99.90;;;;;;4988897;28;20544;-60
2022/11/14 07:01:33;;;;;;;31.52;15.38;;;11.60;99.90;;;;;;4988073;28;20026;-59
2022/11/14 07:04:01;;;;;;;31.08;14.85;;;11.60;99.90;;;;;;4978562;28;20170;-61
2022/11/14 07:06:28;;;;;;;29.13;14.80;;;11.70;99.90;;;;;;4986482;28;20034;-58
2022/11/14 07:08:55;;;;;;;30.60;14.80;;;11.70;99.90;;;;;;4988763;28;20026;-60
2022/11/14 07:11:25;;;;;;;28.88;14.32;;;11.70;99.90;;;;;;4987421;28;20409;-60
2022/11/14 07:13:52;;;;;;;30.20;15.35;;;11.80;99.90;;;;;;4983441;28;20023;-60
2022/11/14 07:16:20;;;;;;;28.20;14.95;;;11.80;99.90;;;;;;4980791;28;20038;-59
2022/11/14 07:18:45;;;;;;;30.08;15.52;;;11.90;99.90;;;;;;4972992;28;20030;-60
2022/11/14 07:21:14;;;;;;;31.67;16.42;;;12.00;99.90;;;;;;4984495;28;20164;-59
2022/11/14 07:23:40;;;;;;;27.80;14.27;;;12.00;99.90;;;;;;4988685;28;20037;-59
2022/11/14 07:26:09;;;;;;;28.80;15.63;;;12.10;99.90;;;;;;4987920;28;20478;-60
2022/11/14 07:28:38;;;;;;;32.83;16.33;;;12.10;99.90;;;;;;4983730;28;20390;-60
2022/11/14 07:31:05;;;;;;;29.92;14.82;;;12.10;99.90;;;;;;4988506;28;20486;-60
2022/11/14 07:33:32;;;;;;;30.45;15.80;;;12.10;99.90;;;;;;4989926;28;20062;-60
2022/11/14 07:35:58;;;;;;;29.98;14.55;;;12.10;99.90;;;;;;4988056;28;20038;-58
2022/11/14 07:38:24;;;;;;;27.88;16.15;;;12.20;99.90;;;;;;4989208;28;20085;-59
2022/11/14 07:40:57;;;;;;;30.75;15.85;;;12.20;99.90;;;;;;4987729;28;20030;-58
2022/11/14 07:43:24;;;;;;;27.65;15.45;;;12.20;99.90;;;;;;4988467;28;20134;-60
2022/11/14 07:45:50;;;;;;;27.25;16.00;;;12.30;99.90;;;;;;4986885;28;20041;-59
2022/11/14 07:48:16;;;;;;;31.33;16.23;;;12.30;99.90;;;;;;4989051;28;20018;-60
2022/11/14 07:50:43;;;;;;;27.58;15.13;;;12.30;99.90;;;;;;4984125;28;20040;-60
2022/11/14 07:53:09;;;;;;;25.95;14.77;;;12.30;99.90;;;;;;4983959;28;20030;-60
2022/11/14 07:55:35;;;;;;;29.52;14.07;;;12.40;99.90;;;;;;4988974;28;20097;-60
2022/11/14 07:58:01;;;;;;;31.85;14.80;;;12.30;99.90;;;;;;4985091;28;20030;-61
2022/11/14 08:00:27;;;;;;;28.80;15.15;;;12.40;99.90;;;;;;4979650;28;20049;-59
2022/11/14 08:02:53;;;;;;;30.55;14.70;;;12.40;99.90;;;;;;4983957;28;20027;-61
2022/11/14 08:05:19;;;;;;;26.02;14.23;;;12.50;99.90;;;;;;4988152;28;20022;-59
2022/11/14 08:07:45;;;;;;;24.98;13.80;;;12.50;99.90;;;;;;4987583;28;20129;-60
2022/11/14 08:10:12;;;;;;;29.52;15.10;;;12.50;99.90;;;;;;4985435;28;20118;-60
2022/11/14 08:12:38;;;;;;;29.92;14.57;;;12.60;99.90;;;;;;4984725;28;20051;-60
2022/11/14 08:15:08;;;;;;;28.40;14.32;;;12.60;99.90;;;;;;4986858;28;20030;-60
2022/11/14 08:17:34;;;;;;;26.48;14.77;;;12.70;99.90;;;;;;4994768;28;20034;-60
2022/11/14 08:20:00;;;;;;;27.05;14.30;;;12.70;99.90;;;;;;4986110;28;20030;-59
2022/11/14 08:22:26;;;;;;;28.70;14.95;;;12.70;99.90;;;;;;4989111;28;20050;-59
2022/11/14 08:24:51;;;;;;;27.67;13.90;;;12.70;99.90;;;;;;4986820;28;20054;-60
2022/11/14 08:27:17;;;;;;;25.90;14.07;;;12.70;99.90;;;;;;4990237;28;20038;-59
2022/11/14 08:29:43;;;;;;;24.50;14.40;;;12.80;99.90;;;;;;4987041;28;20026;-60
2022/11/14 08:32:09;;;;;;;31.45;13.68;;;12.80;99.90;;;;;;4981333;28;20043;-60
2022/11/14 08:34:35;;;;;;;24.50;14.30;;;12.90;99.90;;;;;;4984418;28;20057;-60
2022/11/14 08:37:02;;;;;;;25.80;13.98;;;12.90;99.90;;;;;;4981840;28;20026;-60
2022/11/14 08:39:28;;;;;;;23.38;13.55;;;12.90;99.90;;;;;;4986661;28;20478;-61
2022/11/14 08:41:53;;;;;;;27.25;14.43;;;13.00;99.90;;;;;;4981812;28;20157;-59
2022/11/14 08:44:19;;;;;;;43.47;19.63;;;13.00;99.90;;;;;;4987383;28;20042;-60
2022/11/14 08:46:45;;;;;;;24.65;14.10;;;13.20;99.90;;;;;;4986928;28;20042;-59
2022/11/14 08:49:11;;;;;;;28.38;14.00;;;13.20;99.90;;;;;;4982127;28;20030;-59
2022/11/14 08:51:36;;;;;;;22.88;14.80;;;13.20;99.90;;;;;;4985832;28;20046;-60
2022/11/14 08:54:02;;;;;;;25.40;14.55;;;13.30;99.90;;;;;;4985744;28;20105;-60
2022/11/14 08:56:28;;;;;;;22.50;14.45;;;13.40;99.90;;;;;;4986763;28;20030;-61
2022/11/14 08:58:54;;;;;;;27.25;14.63;;;13.40;99.90;;;;;;4984212;28;20050;-60
2022/11/14 09:01:19;;;;;;;24.40;12.73;;;13.40;99.90;;;;;;4985946;28;20097;-60
2022/11/14 09:03:45;;;;;;;22.85;14.10;;;13.50;99.90;;;;;;4985517;28;20035;-60
2022/11/14 09:06:11;;;;;;;21.95;13.52;;;13.50;99.90;;;;;;4984368;28;20363;-61
2022/11/14 09:08:36;;;;;;;18.98;12.50;;;13.50;99.90;;;;;;4989971;28;20037;-61
2022/11/14 09:11:05;;;;;;;19.02;12.13;;;13.50;99.90;;;;;;4985940;28;20386;-61
2022/11/14 09:13:32;;;;;;;21.25;12.18;;;13.30;99.90;;;;;;4985747;28;20050;-61
2022/11/14 09:15:58;;;;;;;23.15;12.23;;;13.30;99.90;;;;;;4968539;28;20039;-60
2022/11/14 09:18:24;;;;;;;26.10;13.43;;;13.30;99.90;;;;;;4989690;28;20049;-62
2022/11/14 09:20:49;;;;;;;22.20;12.85;;;13.30;99.90;;;;;;4984430;28;20030;-60
2022/11/14 09:23:15;;;;;;;22.73;13.15;;;13.40;99.90;;;;;;4988933;28;20023;-60
2022/11/14 09:25:41;;;;;;;18.77;12.00;;;13.50;99.90;;;;;;4989931;28;20022;-60
2022/11/14 09:28:08;;;;;;;23.80;12.75;;;13.60;99.90;;;;;;4982983;28;20121;-61
2022/11/14 09:30:35;;;;;;;22.38;12.50;;;13.70;99.90;;;;;;4987401;28;20121;-61
2022/11/14 09:33:02;;;;;;;19.50;11.98;;;13.70;99.90;;;;;;4987101;28;20061;-61
2022/11/14 09:35:29;;;;;;;19.88;12.20;;;13.80;99.90;;;;;;4990159;28;20097;-60
2022/11/14 09:38:00;;;;;;;19.20;10.65;;;13.70;99.90;;;;;;4988280;28;20042;-60
2022/11/14 09:40:26;;;;;;;21.77;11.18;;;13.80;99.90;;;;;;4988303;28;20030;-60
2022/11/14 09:43:19;;;;;;;21.38;12.23;;;13.80;99.90;;;;;;4984979;28;20050;-59
2022/11/14 09:45:50;;;;;;;20.52;12.82;;;13.90;99.90;;;;;;4983951;28;20081;-59
2022/11/14 09:48:20;;;;;;;21.48;11.15;;;14.00;99.90;;;;;;4969692;28;20015;-60
2022/11/14 09:51:09;;;;;;;18.48;11.20;;;14.00;99.90;;;;;;4983235;28;22044;-59
2022/11/14 09:54:17;;;;;;;17.00;10.90;;;13.90;99.90;;;;;;4986238;28;20082;-60
2022/11/14 09:56:43;;;;;;;20.08;11.90;;;13.80;99.90;;;;;;4967279;28;20092;-60
2022/11/14 09:59:11;;;;;;;17.00;11.00;;;13.90;99.90;;;;;;4968668;28;20183;-60
2022/11/14 10:01:52;;;;;;;20.30;11.68;;;13.90;99.90;;;;;;4989572;28;20053;-60
2022/11/14 10:04:36;;;;;;;21.42;11.82;;;13.90;99.90;;;;;;4986530;28;20022;-60
2022/11/14 10:07:14;;;;;;;16.40;10.43;;;13.90;99.90;;;;;;4987967;28;20038;-59
2022/11/14 10:10:11;;;;;;;19.70;11.55;;;13.90;99.90;;;;;;4987379;28;20026;-58
2022/11/14 10:12:55;;;;;;;16.40;10.25;;;14.00;99.90;;;;;;4977036;28;20062;-61
2022/11/14 10:15:29;;;;;;;18.73;10.90;;;14.20;99.90;;;;;;4988997;28;20049;-59
2022/11/14 10:18:27;;;;;;;16.25;10.13;;;14.30;99.90;;;;;;4985091;28;20109;-61
2022/11/14 10:20:58;;;;;;;20.40;10.07;;;14.30;99.90;;;;;;4977751;28;20390;-59
2022/11/14 10:23:48;;;;;;;14.27;9.48;;;14.40;99.90;;;;;;4969887;28;20045;-60
2022/11/14 10:26:31;;;;;;;15.30;9.35;;;14.50;99.90;;;;;;4988141;28;20038;-59
2022/11/14 10:29:26;;;;;;;21.42;10.68;;;14.60;99.90;;;;;;4981623;28;20035;-60
2022/11/14 10:32:13;;;;;;;17.05;9.40;;;14.70;99.90;;;;;;4986866;28;20548;-59
2022/11/14 10:34:49;;;;;;;14.52;9.63;;;15.00;99.90;;;;;;4983788;28;20138;-60
2022/11/14 10:38:04;;;;;;;21.48;10.48;;;15.10;99.90;;;;;;4981039;28;20045;-59
2022/11/14 10:40:42;;;;;;;14.35;9.57;;;15.30;99.90;;;;;;4956086;28;20478;-59
2022/11/14 10:43:38;;;;;;;13.07;8.75;;;15.50;99.90;;;;;;4983852;28;20575;-60
2022/11/14 10:46:13;;;;;;;14.75;8.32;;;15.60;99.90;;;;;;4985248;28;20041;-61
2022/11/14 10:48:49;;;;;;;15.60;7.90;;;15.60;99.90;;;;;;4980627;28;20038;-61
2022/11/14 10:51:21;;;;;;;12.18;6.97;;;15.80;99.90;;;;;;4989020;28;20401;-60
2022/11/14 10:53:56;;;;;;;7.97;6.03;;;15.80;99.90;;;;;;4985651;28;20033;-62
2022/11/14 10:56:22;;;;;;;14.60;6.88;;;15.90;99.90;;;;;;4984024;28;20048;-60
2022/11/14 10:58:48;;;;;;;17.48;7.25;;;16.00;99.90;;;;;;4967151;28;20470;-62
2022/11/14 11:01:35;;;;;;;12.20;7.03;;;16.10;99.90;;;;;;4983248;28;20044;-60
2022/11/14 11:04:21;;;;;;;11.63;5.78;;;16.10;99.90;;;;;;4982708;28;20110;-59
2022/11/14 11:06:49;;;;;;;14.10;7.07;;;16.40;99.90;;;;;;4983948;28;20077;-60
2022/11/14 11:12:06;;;;;;;9.77;6.05;;;17.40;99.90;;;;;;4985712;28;20072;-60
2022/11/14 11:14:34;;;;;;;11.70;6.72;;;17.60;99.90;;;;;;4986908;28;20146;-61
2022/11/14 11:17:11;;;;;;;8.20;6.32;;;17.40;99.90;;;;;;4986623;28;20034;-59
2022/11/14 11:19:38;;;;;;;6.97;4.97;;;17.90;99.90;;;;;;4985254;28;20486;-61
2022/11/14 11:22:21;;;;;;;7.88;4.53;;;18.70;99.90;;;;;;4986307;28;20049;-62
2022/11/14 11:24:48;;;;;;;9.35;5.03;;;19.40;99.90;;;;;;4987472;28;20482;-60
2022/11/14 11:27:29;;;;;;;6.43;3.85;;;19.50;99.90;;;;;;4987800;28;20446;-60
2022/11/14 11:30:22;;;;;;;6.40;3.60;;;19.30;99.90;;;;;;4965328;28;20053;-60
2022/11/14 11:32:48;;;;;;;8.63;4.28;;;19.60;99.90;;;;;;4984555;28;20042;-58
2022/11/14 11:35:16;;;;;;;10.95;5.03;;;19.70;99.90;;;;;;4981759;28;20755;-61
2022/11/14 11:37:55;;;;;;;9.05;4.30;;;19.60;99.90;;;;;;4987436;28;20502;-60
2022/11/14 11:40:26;;;;;;;8.38;4.65;;;19.20;99.90;;;;;;4982104;28;20029;-60
2022/11/14 11:42:57;;;;;;;;;;;18.70;99.90;;;;;;4979768;28;20054;-59
2022/11/14 11:45:23;;;;;;;6.28;4.00;;;18.90;99.90;;;;;;4986507;28;20381;-61
2022/11/14 11:48:16;;;;;;;9.95;4.18;;;19.20;99.90;;;;;;4985616;28;20031;-60
2022/11/14 11:50:42;;;;;;;10.52;4.72;;;19.20;99.90;;;;;;4982344;28;20133;-61
2022/11/14 11:53:39;;;;;;;6.38;3.90;;;19.70;99.90;;;;;;4985611;28;20861;-60
2022/11/14 11:56:16;;;;;;;8.55;4.03;;;20.00;99.90;;;;;;4984560;28;20065;-61
2022/11/14 11:58:50;;;;;;;7.47;3.85;;;19.80;99.90;;;;;;4987992;28;20049;-61
2022/11/14 12:01:16;;;;;;;10.30;4.50;;;19.50;99.90;;;;;;4985068;28;20022;-60
2022/11/14 12:03:48;;;;;;;7.90;4.10;;;19.60;99.90;;;;;;4985877;28;20113;-61
2022/11/14 12:06:24;;;;;;;9.50;4.30;;;19.90;99.90;;;;;;4987775;28;20030;-59
2022/11/14 12:09:16;;;;;;;10.77;3.83;;;19.80;99.90;;;;;;4984308;28;20042;-60
2022/11/14 12:11:47;;;;;;;4.93;3.47;;;19.70;99.90;;;;;;4986521;28;20038;-60
2022/11/14 12:14:31;;;;;;;5.10;3.92;;;19.70;99.90;;;;;;4985595;28;20483;-61
2022/11/14 12:17:15;;;;;;;6.78;3.70;;;19.00;99.90;;;;;;4981583;28;20501;-60
2022/11/14 12:20:08;;;;;;;9.35;3.70;;;19.30;99.90;;;;;;4983039;28;20561;-61
2022/11/14 12:22:52;;;;;;;5.90;3.22;;;19.50;99.90;;;;;;4987009;28;20426;-61
2022/11/14 12:25:37;;;;;;;6.72;3.35;;;20.30;99.90;;;;;;4984980;28;20085;-61
2022/11/14 12:28:14;;;;;;;8.55;4.55;;;21.10;99.90;;;;;;4987039;28;20023;-60
2022/11/14 12:30:45;;;;;;;7.10;4.10;;;21.40;99.90;;;;;;4983585;28;20046;-61
2022/11/14 12:33:16;;;;;;;7.93;3.25;;;21.80;99.90;;;;;;4984709;28;20026;-60
2022/11/14 12:35:55;;;;;;;5.20;3.17;;;21.70;99.90;;;;;;4987030;28;20502;-60
2022/11/14 12:38:22;;;;;;;5.35;2.90;;;21.30;99.90;;;;;;4981129;28;20027;-61
2022/11/14 12:40:56;;;;;;;4.95;2.78;;;20.70;99.90;;;;;;4985902;28;20029;-60
2022/11/14 12:43:35;;;;;;;3.35;2.42;;;20.70;99.90;;;;;;4986439;28;20046;-60